createdAt,value
2023-05-04T00:01:49.082Z,4.90
2023-05-04T00:04:15.926Z,4.47
2023-05-04T00:06:42.552Z,4.57
2023-05-04T00:09:10.872Z,4.50
2023-05-04T00:11:37.680Z,5.43
2023-05-04T00:14:04.271Z,5.33
2023-05-04T00:16:30.894Z,4.93
2023-05-04T00:18:57.553Z,5.00
2023-05-04T00:21:24.184Z,5.00
2023-05-04T00:23:50.786Z,4.70
2023-05-04T00:26:17.388Z,4.70
2023-05-04T00:28:44.032Z,4.63
2023-05-04T00:31:10.961Z,5.30
2023-05-04T00:33:37.582Z,5.00
2023-05-04T00:36:04.431Z,4.57
2023-05-04T00:38:31.111Z,5.27
2023-05-04T00:40:58.924Z,4.60
2023-05-04T00:43:26.659Z,5.10
2023-05-04T00:45:53.242Z,4.40
2023-05-04T00:48:20.121Z,4.60
2023-05-04T00:50:46.862Z,4.70
2023-05-04T00:53:13.755Z,4.37
2023-05-04T00:55:41.002Z,4.30
2023-05-04T00:58:09.109Z,4.13
2023-05-04T01:00:36.333Z,4.73
2023-05-04T01:03:02.988Z,4.60
2023-05-04T01:05:35.228Z,4.90
2023-05-04T01:08:07.644Z,4.77
2023-05-04T01:10:44.197Z,4.43
2023-05-04T01:13:16.152Z,5.37
2023-05-04T01:15:43.176Z,4.40
2023-05-04T01:18:10.036Z,4.10
2023-05-04T01:20:37.091Z,5.10
2023-05-04T01:23:04.097Z,5.00
2023-05-04T01:25:40.817Z,5.40
2023-05-04T01:28:12.434Z,4.83
2023-05-04T01:30:49.801Z,5.33
2023-05-04T01:33:17.070Z,5.20
2023-05-04T01:35:43.740Z,4.40
2023-05-04T01:38:10.388Z,4.30
2023-05-04T01:40:36.994Z,4.60
2023-05-04T01:43:03.672Z,4.57
2023-05-04T01:45:30.356Z,5.03
2023-05-04T01:47:56.906Z,4.50
2023-05-04T01:50:23.569Z,5.00
2023-05-04T01:52:50.649Z,4.33
2023-05-04T01:55:17.255Z,5.30
2023-05-04T01:57:43.876Z,4.47
2023-05-04T02:00:11.100Z,5.40
2023-05-04T02:02:37.790Z,5.23
2023-05-04T02:05:04.842Z,6.30
2023-05-04T02:07:31.398Z,4.30
2023-05-04T02:09:57.982Z,5.10
2023-05-04T02:12:24.605Z,4.70
2023-05-04T02:14:51.400Z,4.80
2023-05-04T02:17:17.986Z,4.67
2023-05-04T02:19:44.558Z,5.13
2023-05-04T02:22:11.145Z,4.90
2023-05-04T02:24:40.205Z,5.57
2023-05-04T02:27:07.785Z,5.30
2023-05-04T02:29:34.321Z,4.90
2023-05-04T02:32:00.942Z,4.60
2023-05-04T02:34:27.531Z,4.90
2023-05-04T02:36:54.126Z,4.70
2023-05-04T02:39:20.784Z,5.37
2023-05-04T02:41:47.396Z,5.03
2023-05-04T02:44:13.995Z,5.70
2023-05-04T02:46:40.556Z,4.93
2023-05-04T02:49:07.952Z,4.90
2023-05-04T02:51:34.498Z,5.07
2023-05-04T02:54:01.065Z,5.57
2023-05-04T02:56:27.614Z,5.20
2023-05-04T02:58:54.146Z,4.80
2023-05-04T03:01:20.894Z,5.17
2023-05-04T03:03:47.637Z,4.63
2023-05-04T03:06:14.327Z,5.17
2023-05-04T03:08:41.097Z,5.70
2023-05-04T03:11:07.674Z,4.93
2023-05-04T03:13:34.313Z,4.30
2023-05-04T03:16:00.940Z,4.93
2023-05-04T03:18:27.529Z,6.00
2023-05-04T03:20:54.180Z,5.10
2023-05-04T03:23:20.723Z,5.27
2023-05-04T03:25:47.290Z,5.43
2023-05-04T03:28:13.845Z,5.67
2023-05-04T03:30:40.451Z,5.10
2023-05-04T03:33:07.170Z,5.80
2023-05-04T03:35:33.881Z,5.17
2023-05-04T03:38:00.476Z,5.17
2023-05-04T03:40:27.091Z,5.93
2023-05-04T03:42:53.662Z,5.30
2023-05-04T03:45:20.439Z,6.23
2023-05-04T03:47:47.022Z,5.37
2023-05-04T03:50:13.671Z,5.43
2023-05-04T03:52:40.237Z,5.67
2023-05-04T03:55:07.345Z,5.87
2023-05-04T03:57:33.929Z,5.20
2023-05-04T04:00:00.644Z,6.13
2023-05-04T04:02:27.360Z,5.37
2023-05-04T04:04:53.989Z,5.37
2023-05-04T04:07:20.560Z,5.87
2023-05-04T04:09:47.271Z,5.47
2023-05-04T04:12:13.846Z,5.73
2023-05-04T04:14:40.963Z,5.20
2023-05-04T04:17:08.240Z,6.20
2023-05-04T04:19:34.860Z,5.80
2023-05-04T04:22:01.511Z,6.50
2023-05-04T04:24:28.181Z,6.83
2023-05-04T04:26:57.060Z,5.90
2023-05-04T04:29:23.914Z,6.30
2023-05-04T04:31:50.643Z,5.80
2023-05-04T04:34:17.824Z,6.37
2023-05-04T04:36:45.016Z,5.73
2023-05-04T04:39:11.610Z,5.53
2023-05-04T04:41:38.309Z,5.70
2023-05-04T04:44:05.036Z,6.57
2023-05-04T04:46:31.764Z,6.03
2023-05-04T04:48:58.489Z,6.20
2023-05-04T04:51:25.487Z,5.90
2023-05-04T04:53:52.329Z,6.63
2023-05-04T04:56:19.479Z,6.73
2023-05-04T04:58:47.448Z,5.90
2023-05-04T05:01:17.869Z,5.67
2023-05-04T05:03:48.995Z,6.23
2023-05-04T05:06:15.817Z,6.37
2023-05-04T05:08:43.882Z,5.50
2023-05-04T05:11:11.330Z,6.20
2023-05-04T05:13:37.916Z,6.27
2023-05-04T05:16:04.908Z,6.17
2023-05-04T05:18:32.055Z,5.70
2023-05-04T05:20:58.607Z,5.93
2023-05-04T05:23:25.156Z,6.20
2023-05-04T05:25:51.852Z,5.80
2023-05-04T05:28:18.531Z,6.10
2023-05-04T05:30:45.435Z,6.50
2023-05-04T05:33:12.221Z,6.50
2023-05-04T05:35:38.896Z,6.50
2023-05-04T05:38:05.499Z,6.90
2023-05-04T05:40:32.591Z,5.80
2023-05-04T05:42:59.175Z,6.10
2023-05-04T05:45:25.877Z,6.30
2023-05-04T05:47:52.520Z,6.00
2023-05-04T05:50:20.358Z,6.20
2023-05-04T05:52:46.956Z,6.17
2023-05-04T05:55:13.533Z,5.93
2023-05-04T05:57:40.214Z,5.73
2023-05-04T06:00:07.486Z,6.03
2023-05-04T06:02:34.283Z,6.10
2023-05-04T06:05:01.063Z,5.90
2023-05-04T06:07:27.668Z,5.40
2023-05-04T06:09:54.217Z,5.40
2023-05-04T06:12:21.329Z,5.40
2023-05-04T06:14:47.961Z,4.83
2023-05-04T06:17:14.564Z,5.00
2023-05-04T06:19:41.152Z,5.70
2023-05-04T06:22:08.148Z,4.77
2023-05-04T06:24:34.707Z,5.33
2023-05-04T06:27:02.260Z,5.43
2023-05-04T06:29:28.868Z,5.50
2023-05-04T06:31:56.244Z,5.00
2023-05-04T06:34:23.005Z,5.83
2023-05-04T06:36:49.558Z,5.40
2023-05-04T06:39:16.110Z,5.60
2023-05-04T06:41:42.799Z,6.23
2023-05-04T06:44:09.491Z,5.30
2023-05-04T06:46:39.455Z,5.00
2023-05-04T06:49:06.092Z,5.30
2023-05-04T06:51:35.161Z,5.13
2023-05-04T06:54:02.981Z,4.93
2023-05-04T06:56:29.519Z,4.80
2023-05-04T06:58:56.309Z,4.80
2023-05-04T07:01:22.963Z,5.40
2023-05-04T07:03:49.673Z,4.10
2023-05-04T07:06:16.244Z,4.60
2023-05-04T07:08:42.902Z,4.93
2023-05-04T07:11:10.286Z,5.07
2023-05-04T07:13:38.540Z,5.57
2023-05-04T07:16:07.868Z,5.37
2023-05-04T07:18:34.545Z,5.37
2023-05-04T07:21:16.036Z,4.90
2023-05-04T07:23:47.848Z,4.90
2023-05-04T07:26:14.485Z,4.90
2023-05-04T07:28:43.621Z,5.10
2023-05-04T07:31:12.750Z,5.53
2023-05-04T07:33:39.411Z,5.00
2023-05-04T07:36:06.664Z,5.53
2023-05-04T07:38:33.401Z,4.40
2023-05-04T07:40:59.952Z,4.60
2023-05-04T07:43:26.545Z,4.80
2023-05-04T07:45:53.585Z,4.80
2023-05-04T07:48:20.477Z,4.70
2023-05-04T07:50:47.586Z,4.93
2023-05-04T07:53:14.134Z,4.90
2023-05-04T07:55:40.701Z,5.00
2023-05-04T07:58:07.361Z,4.77
2023-05-04T08:00:34.034Z,4.80
2023-05-04T08:03:00.835Z,6.23
2023-05-04T08:05:27.478Z,4.47
2023-05-04T08:07:54.040Z,5.40
2023-05-04T08:10:20.721Z,4.90
2023-05-04T08:12:47.304Z,4.87
2023-05-04T08:15:14.607Z,4.67
2023-05-04T08:17:41.247Z,4.67
2023-05-04T08:20:09.384Z,4.93
2023-05-04T08:22:36.227Z,4.90
2023-05-04T08:25:03.329Z,5.20
2023-05-04T08:27:30.208Z,4.93
2023-05-04T08:29:59.732Z,4.50
2023-05-04T08:32:26.729Z,5.40
2023-05-04T08:34:53.472Z,4.90
2023-05-04T08:37:20.219Z,5.87
2023-05-04T08:39:46.872Z,4.77
2023-05-04T08:42:13.587Z,5.03
2023-05-04T08:44:42.016Z,4.97
2023-05-04T08:47:09.942Z,5.67
2023-05-04T08:49:36.624Z,5.33
2023-05-04T08:52:07.221Z,4.93
2023-05-04T08:54:35.203Z,5.43
2023-05-04T08:57:03.984Z,5.27
2023-05-04T08:59:32.335Z,5.57
2023-05-04T09:01:59.561Z,5.23
2023-05-04T09:04:28.662Z,5.90
2023-05-04T09:06:57.385Z,5.03
2023-05-04T09:09:27.887Z,5.37
2023-05-04T09:11:54.710Z,5.07
2023-05-04T09:14:22.988Z,5.70
2023-05-04T09:16:49.768Z,5.47
2023-05-04T09:19:18.474Z,5.23
2023-05-04T09:21:45.260Z,5.90
2023-05-04T09:24:12.600Z,5.63
2023-05-04T09:26:39.247Z,5.70
2023-05-04T09:29:16.105Z,5.60
2023-05-04T09:31:47.923Z,5.40
2023-05-04T09:34:15.122Z,5.87
2023-05-04T09:36:42.268Z,5.73
2023-05-04T09:39:13.506Z,5.90
2023-05-04T09:41:40.539Z,5.70
2023-05-04T09:44:17.963Z,6.90
2023-05-04T09:46:53.293Z,5.57
2023-05-04T09:49:32.717Z,5.50
2023-05-04T09:52:03.160Z,5.20
2023-05-04T09:54:35.034Z,5.87
2023-05-04T09:57:15.507Z,6.10
2023-05-04T09:59:42.737Z,6.57
2023-05-04T10:02:21.869Z,6.30
2023-05-04T10:04:51.667Z,6.73
2023-05-04T10:07:19.055Z,6.30
2023-05-04T10:09:48.487Z,5.20
2023-05-04T10:12:15.085Z,6.00
2023-05-04T10:14:42.905Z,6.80
2023-05-04T10:17:27.862Z,6.93
2023-05-04T10:20:28.215Z,6.43
2023-05-04T10:23:21.354Z,5.50
2023-05-04T10:26:15.251Z,5.70
2023-05-04T10:29:36.753Z,6.40
2023-05-04T10:32:03.990Z,6.30
2023-05-04T10:34:32.589Z,5.93
2023-05-04T10:37:00.628Z,5.70
2023-05-04T10:39:30.114Z,5.90
2023-05-04T10:42:01.530Z,5.80
2023-05-04T10:44:29.696Z,6.20
2023-05-04T10:47:00.665Z,6.03
2023-05-04T10:49:28.070Z,5.47
2023-05-04T10:52:09.718Z,6.20
2023-05-04T10:54:40.798Z,6.18
2023-05-04T10:57:13.396Z,6.05
2023-05-04T10:59:41.347Z,5.38
2023-05-04T11:02:08.528Z,5.68
2023-05-04T11:04:35.693Z,5.25
2023-05-04T11:07:08.597Z,5.45
2023-05-04T11:09:41.333Z,5.57
2023-05-04T11:12:11.675Z,5.47
2023-05-04T11:14:42.554Z,5.55
2023-05-04T11:17:26.612Z,5.40
2023-05-04T11:19:53.758Z,6.00
2023-05-04T11:22:20.443Z,5.53
2023-05-04T11:24:48.522Z,5.40
2023-05-04T11:27:29.240Z,6.60
2023-05-04T11:30:05.977Z,6.13
2023-05-04T11:32:37.905Z,5.93
2023-05-04T11:35:08.458Z,6.38
2023-05-04T11:37:40.408Z,5.82
2023-05-04T11:40:13.290Z,6.03
2023-05-04T11:42:43.581Z,6.00
2023-05-04T11:45:12.327Z,4.88
2023-05-04T11:47:39.936Z,5.60
2023-05-04T11:50:09.248Z,5.70
2023-05-04T11:52:36.475Z,5.90
2023-05-04T11:55:03.289Z,5.30
2023-05-04T11:57:32.865Z,6.22
2023-05-04T11:59:59.456Z,4.72
2023-05-04T12:02:26.885Z,5.40
2023-05-04T12:04:53.882Z,4.88
2023-05-04T12:07:20.901Z,5.15
2023-05-04T12:09:49.144Z,5.20
2023-05-04T12:12:18.796Z,4.78
2023-05-04T12:14:52.263Z,5.85
2023-05-04T12:17:21.994Z,5.10
2023-05-04T12:19:52.305Z,5.10
2023-05-04T12:22:28.354Z,6.10
2023-05-04T12:24:58.603Z,5.05
2023-05-04T12:27:28.814Z,4.70
2023-05-04T12:29:55.534Z,5.10
2023-05-04T12:32:22.285Z,5.43
2023-05-04T12:34:48.906Z,5.53
2023-05-04T12:37:15.698Z,4.85
2023-05-04T12:39:42.301Z,5.30
2023-05-04T12:42:08.842Z,4.68
2023-05-04T12:44:35.607Z,5.93
2023-05-04T12:47:02.137Z,4.70
2023-05-04T12:49:28.722Z,4.20
2023-05-04T12:51:55.413Z,4.63
2023-05-04T12:54:22.103Z,4.15
2023-05-04T12:56:48.753Z,4.50
2023-05-04T12:59:15.320Z,5.37
2023-05-04T13:01:43.465Z,4.33
2023-05-04T13:04:10.146Z,3.90
2023-05-04T13:06:36.788Z,5.17
2023-05-04T13:09:05.663Z,4.00
2023-05-04T13:11:32.674Z,4.80
2023-05-04T13:13:59.275Z,4.60
2023-05-04T13:16:27.919Z,4.67
2023-05-04T13:18:55.515Z,4.77
2023-05-04T13:21:22.516Z,4.77
2023-05-04T13:23:49.191Z,4.60
2023-05-04T13:26:15.916Z,4.90
2023-05-04T13:28:42.646Z,4.83
2023-05-04T13:31:10.145Z,4.60
2023-05-04T13:33:40.065Z,5.07
2023-05-04T13:36:07.076Z,4.23
2023-05-04T13:38:33.689Z,4.63
2023-05-04T13:41:00.278Z,5.63
2023-05-04T13:43:26.964Z,4.73
2023-05-04T13:45:53.659Z,4.60
2023-05-04T13:48:20.301Z,5.53
2023-05-04T13:50:46.936Z,4.60
2023-05-04T13:53:13.619Z,4.77
2023-05-04T13:55:40.241Z,4.73
2023-05-04T13:58:07.463Z,4.60
2023-05-04T14:00:34.077Z,4.40
2023-05-04T14:03:00.862Z,4.40
2023-05-04T14:05:27.560Z,3.90
2023-05-04T14:07:54.102Z,4.00
2023-05-04T14:10:20.923Z,4.00
2023-05-04T14:12:47.511Z,4.33
2023-05-04T14:15:16.393Z,4.40
2023-05-04T14:17:43.009Z,4.50
2023-05-04T14:20:10.245Z,4.67
2023-05-04T14:22:38.294Z,3.80
2023-05-04T14:25:05.861Z,3.77
2023-05-04T14:27:35.272Z,3.53
2023-05-04T14:30:03.652Z,3.97
2023-05-04T14:32:30.428Z,4.07
2023-05-04T14:35:06.335Z,3.63
2023-05-04T14:37:35.646Z,4.17
2023-05-04T14:40:07.355Z,4.43
2023-05-04T14:42:34.975Z,3.80
2023-05-04T14:45:01.576Z,3.93
2023-05-04T14:47:29.436Z,3.57
2023-05-04T14:49:57.194Z,4.70
2023-05-04T14:52:23.725Z,5.20
2023-05-04T14:54:50.350Z,3.70
2023-05-04T14:57:17.188Z,3.40
2023-05-04T14:59:43.884Z,4.10
2023-05-04T15:02:11.517Z,4.00
2023-05-04T15:04:38.344Z,4.53
2023-05-04T15:07:09.332Z,6.13
2023-05-04T15:09:36.043Z,3.80
2023-05-04T15:12:03.406Z,4.10
2023-05-04T15:14:29.980Z,4.30
2023-05-04T15:16:56.600Z,4.10
2023-05-04T15:19:23.141Z,3.33
2023-05-04T15:21:49.708Z,4.90
2023-05-04T15:24:16.384Z,6.67
2023-05-04T15:26:42.941Z,3.83
2023-05-04T15:29:09.558Z,4.57
2023-05-04T15:31:36.234Z,3.53
2023-05-04T15:34:02.905Z,4.00
2023-05-04T15:36:31.620Z,4.33
2023-05-04T15:38:58.196Z,4.13
2023-05-04T15:41:24.732Z,4.50
2023-05-04T15:43:51.353Z,3.90
2023-05-04T15:46:18.062Z,4.27
2023-05-04T15:48:44.721Z,4.00
2023-05-04T15:51:12.024Z,4.77
2023-05-04T15:53:38.829Z,4.50
2023-05-04T15:56:06.387Z,4.50
2023-05-04T15:58:33.546Z,3.90
2023-05-04T16:01:03.639Z,4.20
2023-05-04T16:03:31.410Z,4.20
2023-05-04T16:05:58.353Z,4.00
2023-05-04T16:08:25.645Z,4.47
2023-05-04T16:10:53.428Z,4.83
2023-05-04T16:13:20.902Z,3.50
2023-05-04T16:15:51.214Z,3.90
2023-05-04T16:18:18.441Z,3.80
2023-05-04T16:20:46.079Z,4.07
2023-05-04T16:23:17.467Z,3.53
2023-05-04T16:25:44.401Z,3.43
2023-05-04T16:28:11.233Z,3.30
2023-05-04T16:30:38.108Z,3.83
2023-05-04T16:33:04.932Z,3.70
2023-05-04T16:35:31.771Z,3.20
2023-05-04T16:37:58.918Z,3.87
2023-05-04T16:40:25.653Z,3.37
2023-05-04T16:42:52.223Z,3.93
2023-05-04T16:45:19.102Z,3.87
2023-05-04T16:47:46.399Z,4.03
2023-05-04T16:50:14.300Z,3.90
2023-05-04T16:52:41.255Z,3.50
2023-05-04T16:55:11.906Z,3.30
2023-05-04T16:57:39.423Z,3.47
2023-05-04T17:00:07.272Z,4.00
2023-05-04T17:02:34.654Z,3.20
2023-05-04T17:05:01.490Z,3.23
2023-05-04T17:07:28.392Z,3.83
2023-05-04T17:09:54.998Z,3.67
2023-05-04T17:12:23.113Z,3.90
2023-05-04T17:14:49.686Z,3.80
2023-05-04T17:17:16.221Z,3.27
2023-05-04T17:19:42.930Z,4.10
2023-05-04T17:22:11.024Z,2.90
2023-05-04T17:24:37.892Z,3.60
2023-05-04T17:27:04.561Z,3.33
2023-05-04T17:29:31.512Z,3.43
2023-05-04T17:31:58.156Z,3.60
2023-05-04T17:34:24.863Z,3.10
2023-05-04T17:36:51.513Z,3.23
2023-05-04T17:39:18.643Z,3.43
2023-05-04T17:41:48.714Z,3.43
2023-05-04T17:44:16.283Z,3.23
2023-05-04T17:46:43.154Z,3.10
2023-05-04T17:49:09.983Z,3.20
2023-05-04T17:51:36.527Z,3.00
2023-05-04T17:54:03.198Z,3.77
2023-05-04T17:56:29.766Z,3.53
2023-05-04T17:58:56.343Z,3.30
2023-05-04T18:01:22.966Z,3.63
2023-05-04T18:03:49.620Z,3.47
2023-05-04T18:06:16.305Z,3.13
2023-05-04T18:08:42.958Z,2.57
2023-05-04T18:11:09.542Z,2.73
2023-05-04T18:13:36.125Z,2.93
2023-05-04T18:16:02.806Z,3.50
2023-05-04T18:18:29.468Z,2.80
2023-05-04T18:20:58.557Z,3.00
2023-05-04T18:23:25.094Z,3.00
2023-05-04T18:25:51.763Z,2.87
2023-05-04T18:28:18.370Z,3.10
2023-05-04T18:30:45.091Z,2.70
2023-05-04T18:33:11.752Z,3.23
2023-05-04T18:35:38.324Z,2.60
2023-05-04T18:38:04.980Z,3.10
2023-05-04T18:40:31.943Z,2.83
2023-05-04T18:42:58.549Z,3.30
2023-05-04T18:45:25.152Z,3.20
2023-05-04T18:47:51.742Z,2.90
2023-05-04T18:50:18.342Z,3.00
2023-05-04T18:52:44.883Z,2.80
2023-05-04T18:55:11.584Z,3.10
2023-05-04T18:57:38.135Z,3.10
2023-05-04T19:00:09.074Z,3.20
2023-05-04T19:02:36.892Z,3.80
2023-05-04T19:05:03.596Z,2.90
2023-05-04T19:07:30.183Z,3.03
2023-05-04T19:09:56.802Z,2.97
2023-05-04T19:12:23.787Z,3.20
2023-05-04T19:14:51.089Z,2.80
2023-05-04T19:17:18.355Z,3.43
2023-05-04T19:19:44.956Z,3.33
2023-05-04T19:22:13.123Z,3.37
2023-05-04T19:24:39.798Z,3.37
2023-05-04T19:27:07.034Z,3.73
2023-05-04T19:29:33.756Z,3.80
2023-05-04T19:32:05.666Z,3.50
2023-05-04T19:34:42.775Z,3.90
2023-05-04T19:37:09.547Z,3.90
2023-05-04T19:39:36.514Z,4.20
2023-05-04T19:42:03.200Z,3.80
2023-05-04T19:44:29.802Z,3.93
2023-05-04T19:46:56.489Z,3.77
2023-05-04T19:49:24.901Z,3.90
2023-05-04T19:51:51.479Z,3.90
2023-05-04T19:54:18.096Z,3.77
2023-05-04T19:56:44.670Z,4.00
2023-05-04T19:59:11.274Z,4.37
2023-05-04T20:01:37.896Z,4.30
2023-05-04T20:04:05.869Z,4.47
2023-05-04T20:06:32.429Z,3.90
2023-05-04T20:08:58.990Z,4.17
2023-05-04T20:11:25.780Z,4.20
2023-05-04T20:13:54.115Z,4.40
2023-05-04T20:16:22.141Z,5.13
2023-05-04T20:18:48.996Z,4.10
2023-05-04T20:21:15.580Z,4.07
2023-05-04T20:23:42.150Z,4.00
2023-05-04T20:26:08.737Z,5.37
2023-05-04T20:28:35.316Z,4.53
2023-05-04T20:31:01.865Z,4.20
2023-05-04T20:33:28.461Z,4.40
2023-05-04T20:35:55.071Z,4.30
2023-05-04T20:38:21.684Z,3.90
2023-05-04T20:40:49.362Z,4.20
2023-05-04T20:43:16.443Z,4.40
2023-05-04T20:45:42.986Z,5.00
2023-05-04T20:48:09.645Z,5.10
2023-05-04T20:50:36.440Z,4.57
2023-05-04T20:53:03.054Z,5.00
2023-05-04T20:55:29.844Z,4.67
2023-05-04T20:57:56.472Z,4.23
2023-05-04T21:00:24.630Z,4.63
2023-05-04T21:02:51.375Z,4.70
2023-05-04T21:05:18.060Z,5.47
2023-05-04T21:07:44.646Z,5.13
2023-05-04T21:10:11.321Z,4.50
2023-05-04T21:12:38.003Z,5.10
2023-05-04T21:15:05.440Z,5.13
2023-05-04T21:17:32.022Z,5.23
2023-05-04T21:19:58.635Z,5.40
2023-05-04T21:22:25.179Z,5.43
2023-05-04T21:24:51.800Z,5.27
2023-05-04T21:27:18.345Z,4.83
2023-05-04T21:29:44.914Z,5.00
2023-05-04T21:32:11.558Z,4.50
2023-05-04T21:34:38.130Z,5.40
2023-05-04T21:37:04.687Z,5.33
2023-05-04T21:39:31.617Z,5.80
2023-05-04T21:41:58.332Z,5.40
2023-05-04T21:44:25.120Z,5.60
2023-05-04T21:46:51.922Z,5.53
2023-05-04T21:49:18.563Z,5.40
2023-05-04T21:51:45.132Z,6.43
2023-05-04T21:54:11.696Z,5.20
2023-05-04T21:56:40.823Z,5.90
2023-05-04T21:59:07.418Z,5.97
2023-05-04T22:01:33.986Z,5.70
2023-05-04T22:04:00.911Z,5.97
2023-05-04T22:06:27.631Z,5.87
2023-05-04T22:08:54.197Z,6.30
2023-05-04T22:11:23.844Z,5.53
2023-05-04T22:13:50.425Z,5.90
2023-05-04T22:16:17.005Z,5.60
2023-05-04T22:18:43.602Z,5.83
2023-05-04T22:21:10.437Z,5.97
2023-05-04T22:23:37.004Z,6.07
2023-05-04T22:26:03.777Z,5.83
2023-05-04T22:28:30.376Z,5.40
2023-05-04T22:30:57.322Z,5.33
2023-05-04T22:33:24.378Z,5.50
2023-05-04T22:35:51.452Z,5.90
2023-05-04T22:38:18.006Z,5.20
2023-05-04T22:40:44.548Z,5.17
2023-05-04T22:43:11.151Z,5.70
2023-05-04T22:45:38.833Z,5.20
2023-05-04T22:48:05.473Z,5.50
2023-05-04T22:50:32.316Z,5.40
2023-05-04T22:52:59.039Z,5.60
2023-05-04T22:55:25.748Z,4.97
2023-05-04T22:57:52.619Z,7.43
2023-05-04T23:00:19.721Z,4.77
2023-05-04T23:02:46.576Z,5.33
2023-05-04T23:05:13.239Z,5.60
2023-05-04T23:07:40.417Z,5.30
2023-05-04T23:10:07.885Z,4.97
2023-05-04T23:12:34.665Z,5.47
2023-05-04T23:15:01.290Z,5.00
2023-05-04T23:17:27.917Z,5.07
2023-05-04T23:19:54.607Z,4.83
2023-05-04T23:22:21.333Z,5.87
2023-05-04T23:24:47.879Z,5.73
2023-05-04T23:27:14.420Z,5.67
2023-05-04T23:29:41.050Z,5.20
2023-05-04T23:32:07.784Z,5.57
2023-05-04T23:34:34.419Z,5.40
2023-05-04T23:37:01.069Z,5.37
2023-05-04T23:39:27.721Z,6.30
2023-05-04T23:41:54.301Z,5.43
2023-05-04T23:44:21.237Z,5.13
2023-05-04T23:46:48.030Z,5.50
2023-05-04T23:49:14.666Z,5.70
2023-05-04T23:51:41.209Z,5.83
2023-05-04T23:54:07.769Z,5.63
2023-05-04T23:56:34.304Z,5.40
2023-05-04T23:59:00.901Z,5.43
